Fort Collins, CO

3:38 AM MDT on May 04, 2015 (GMT -0600)
Taft Hill and Mulberry | | Change Station
CLOSE
Current Station
Personal Weather Station
Location: Fort Collins, CO
Elevation: 5092 ft
Nearby Weather Stations

Elev 5092 ft 40.58 °N, 105.12 °W | Updated 3 seconds ago

Overcast
Overcast
51.1 °F
Feels Like 51.1 °F
N
0.0
Wind Variable Wind from North
Gusts 1.6 mph

Today
High -- | Low -- °F
--% Chance of Precip.
Yesterday
High -- | Low -- °F
Precip. -- in
5:55 AM 7:59 PM
Full, 100% visible
Pressure 30.10 in
Visibility 10.0 miles
Clouds Few 5000 ft
Dew Point 49 °F
Humidity 94%
Rainfall 0.02 in
Snow Depth Not available.
UV 0 out of 12
Pollen 10.40 out of 12
Air Quality Not available.
Flu Activity Sporadic
METAR KFNL 040935Z AUTO 00000KT 10SM FEW050 10/08 A3010 RMK AO1 P0001

More Conditions Fewer Conditions

Pressure 30.10 in
Visibility 10.0 miles
Clouds Few 5000 ft
Dew Point 49 °F
Humidity 94%
Rainfall 0.02 in
Snow Depth Not available.
UV 0 out of 12
Pollen 10.40 out of 12
Air Quality Not available.
Flu Activity Sporadic
METAR KFNL 040935Z AUTO 00000KT 10SM FEW050 10/08 A3010 RMK AO1 P0001

More Conditions Fewer Conditions

Nepal has a long way to go to dig out and rebuild from a devastating earthquake. We have teamed up with several charities and organizations to make contributing to the relief effort as easy as possible.
How you can help: Portlight Strategies | Red Cross
Nowcast | as of 3:38 am MDT on May 4, 2015

Scattered rain showers will continue moving north across the Metro areas and plains of northeastern Colorado through the early morning hours. Rainfall amounts of one to two tenths of an inch can be expected.

×

10-Day Weather Forecast

Almanac

Astronomy

May. 04, 2015 Rise Set
Actual Time
Civil Twilight
Nautical Twilight
Astronomical Twilight
Moon
Length of Visible Light
Length of Day
Tomorrow will be .
, % of the Moon is Illuminated

Today's Extremes

State Highs State Lows

Community

WunderPhotos

Upload Photos

1,818,550 photos uploaded!

WunderBlogs® & News

Nearby

Air Quality

  Air Quality AQ Index Pollutant
Not available.

Snow Depth

Station Depth Elevation

Earthquake Activity

City Distance Mag. Time & Date
Minimum magnitude displayed is 2.5.

Coastal Water Temperatures

Place Temperature

Stations

Nearby Weather Stations

Station Location Temp. Windchill Dew Point Humidity Wind Precip. Elev Updated Type